createdAt,value
2023-02-25T00:00:33.549Z,56.55
2023-02-25T00:03:01.189Z,56.60
2023-02-25T00:05:31.329Z,56.42
2023-02-25T00:07:59.856Z,56.25
2023-02-25T00:10:27.368Z,56.14
2023-02-25T00:12:54.807Z,56.09
2023-02-25T00:15:22.662Z,56.09
2023-02-25T00:17:49.973Z,56.10
2023-02-25T00:20:18.413Z,56.19
2023-02-25T00:22:45.946Z,55.92
2023-02-25T00:25:13.222Z,55.76
2023-02-25T00:27:40.455Z,55.79
2023-02-25T00:30:08.562Z,55.68
2023-02-25T00:32:35.957Z,56.05
2023-02-25T00:39:16.256Z,55.91
2023-02-25T00:41:45.581Z,56.00
2023-02-25T00:44:13.049Z,55.97
2023-02-25T00:46:40.224Z,55.99
2023-02-25T00:49:27.191Z,55.90
2023-02-25T00:51:59.984Z,55.77
2023-02-25T00:54:28.350Z,55.75
2023-02-25T00:56:58.184Z,55.75
2023-02-25T00:59:25.593Z,55.79
2023-02-25T01:01:53.298Z,55.88
2023-02-25T01:04:20.562Z,56.10
2023-02-25T01:10:56.209Z,56.04
2023-02-25T01:13:23.486Z,56.07
2023-02-25T01:15:50.662Z,55.91
2023-02-25T01:18:17.965Z,55.90
2023-02-25T01:20:45.164Z,55.92
2023-02-25T01:23:12.546Z,55.99
2023-02-25T01:25:41.034Z,56.04
2023-02-25T01:28:08.520Z,56.00
2023-02-25T01:30:38.708Z,56.04
2023-02-25T01:33:05.883Z,56.10
2023-02-25T01:35:36.074Z,56.17
2023-02-25T01:38:03.441Z,55.96
2023-02-25T01:40:31.130Z,56.08
2023-02-25T01:42:58.356Z,56.41
2023-02-25T01:45:31.020Z,56.06
2023-02-25T01:48:17.316Z,56.05
2023-02-25T01:50:54.005Z,56.24
2023-02-25T01:53:29.483Z,56.07
2023-02-25T01:55:59.916Z,56.19
2023-02-25T01:58:27.988Z,56.45
2023-02-25T02:00:56.160Z,56.66
2023-02-25T02:03:34.414Z,56.35
2023-02-25T02:06:26.407Z,56.56
2023-02-25T02:08:54.974Z,56.22
2023-02-25T02:11:22.133Z,56.18
2023-02-25T02:13:55.666Z,56.54
2023-02-25T02:17:20.352Z,56.40
2023-02-25T02:20:05.106Z,56.44
2023-02-25T02:22:48.312Z,56.70
2023-02-25T02:25:51.877Z,56.60
2023-02-25T02:28:31.159Z,57.04
2023-02-25T02:35:23.718Z,56.82
2023-02-25T02:38:33.963Z,56.84
2023-02-25T02:41:22.848Z,56.96
2023-02-25T02:44:26.995Z,57.18
2023-02-25T02:47:10.476Z,56.88
2023-02-25T02:49:57.433Z,56.82
2023-02-25T02:52:31.871Z,56.86
2023-02-25T02:59:39.020Z,56.79
2023-02-25T03:02:20.710Z,56.67
2023-02-25T03:04:53.829Z,56.66
2023-02-25T03:07:23.518Z,56.70
2023-02-25T03:09:57.196Z,56.45
2023-02-25T03:12:25.001Z,56.65
2023-02-25T03:14:52.243Z,56.74
2023-02-25T03:17:28.673Z,56.49
2023-02-25T03:20:27.222Z,56.43
2023-02-25T03:22:58.754Z,56.53
2023-02-25T03:25:41.019Z,56.19
2023-02-25T03:28:19.815Z,56.16
2023-02-25T03:31:10.248Z,56.59
2023-02-25T03:33:47.627Z,57.03
2023-02-25T03:36:40.273Z,56.74
2023-02-25T03:39:17.092Z,57.14
2023-02-25T03:41:52.329Z,57.15
2023-02-25T03:44:51.618Z,57.24
2023-02-25T03:47:22.347Z,57.03
2023-02-25T03:50:08.567Z,57.27
2023-02-25T03:52:36.567Z,57.25
2023-02-25T03:55:06.136Z,57.37
2023-02-25T03:57:41.275Z,57.17
2023-02-25T04:00:18.723Z,57.42
2023-02-25T04:02:47.732Z,57.30
2023-02-25T04:05:17.773Z,57.53
2023-02-25T04:07:45.471Z,57.83
2023-02-25T04:10:16.312Z,57.71
2023-02-25T04:12:43.601Z,57.78
2023-02-25T04:15:11.570Z,57.59
2023-02-25T04:17:39.142Z,57.69
2023-02-25T04:20:06.927Z,57.56
2023-02-25T04:22:34.218Z,57.67
2023-02-25T04:25:01.669Z,57.95
2023-02-25T04:27:28.777Z,57.81
2023-02-25T04:29:55.971Z,57.69
2023-02-25T04:32:23.387Z,58.03
2023-02-25T04:34:51.210Z,57.84
2023-02-25T04:37:18.457Z,57.75
2023-02-25T04:39:45.596Z,57.31
2023-02-25T04:42:12.766Z,57.36
2023-02-25T04:44:39.966Z,57.90
2023-02-25T04:47:07.103Z,57.43
2023-02-25T04:49:34.686Z,57.86
2023-02-25T04:52:01.868Z,57.43
2023-02-25T04:58:23.506Z,57.66
2023-02-25T05:00:50.664Z,57.22
2023-02-25T05:03:17.832Z,57.36
2023-02-25T05:05:45.037Z,57.24
2023-02-25T05:08:12.236Z,57.32
2023-02-25T05:10:39.401Z,57.29
2023-02-25T05:13:07.172Z,57.41
2023-02-25T05:15:34.311Z,57.18
2023-02-25T05:18:02.548Z,57.35
2023-02-25T05:20:30.058Z,57.26
2023-02-25T05:27:05.262Z,57.56
2023-02-25T05:29:32.409Z,57.04
2023-02-25T05:36:11.307Z,57.43
2023-02-25T05:38:38.655Z,57.31
2023-02-25T05:41:07.180Z,57.36
2023-02-25T05:43:35.745Z,57.08
2023-02-25T05:46:03.250Z,57.59
2023-02-25T05:49:16.095Z,57.56
2023-02-25T05:51:43.480Z,57.64
2023-02-25T05:58:11.364Z,57.84
2023-02-25T06:00:39.594Z,57.59
2023-02-25T06:03:07.002Z,57.73
2023-02-25T06:05:34.274Z,57.90
2023-02-25T06:08:01.703Z,58.18
2023-02-25T06:10:28.968Z,58.14
2023-02-25T06:12:56.165Z,58.18
2023-02-25T06:15:23.325Z,58.76
2023-02-25T06:17:50.557Z,58.52
2023-02-25T06:24:24.719Z,58.64
2023-02-25T06:26:52.083Z,58.79
2023-02-25T06:29:19.556Z,58.83
2023-02-25T06:31:46.934Z,58.79
2023-02-25T06:34:14.281Z,58.75
2023-02-25T06:36:41.481Z,59.08
2023-02-25T06:43:18.666Z,59.13
2023-02-25T06:45:45.892Z,59.17
2023-02-25T06:48:13.333Z,59.13
2023-02-25T06:50:41.639Z,59.20
2023-02-25T06:57:08.216Z,59.67
2023-02-25T06:59:35.381Z,59.40
2023-02-25T07:02:03.161Z,59.33
2023-02-25T07:04:30.588Z,59.56
2023-02-25T07:06:57.752Z,59.78
2023-02-25T07:09:25.499Z,59.90
2023-02-25T07:11:52.655Z,60.11
2023-02-25T07:14:19.849Z,59.93
2023-02-25T07:16:47.051Z,60.13
2023-02-25T07:19:16.265Z,60.24
2023-02-25T07:21:44.604Z,60.39
2023-02-25T07:24:13.476Z,60.30
2023-02-25T07:30:43.176Z,61.15
2023-02-25T07:33:10.416Z,60.94
2023-02-25T07:35:37.920Z,60.82
2023-02-25T07:38:05.072Z,60.57
2023-02-25T07:40:32.236Z,60.29
2023-02-25T07:42:59.399Z,59.59
2023-02-25T07:45:26.640Z,59.59
2023-02-25T07:47:54.295Z,59.71
2023-02-25T07:50:21.926Z,58.93
2023-02-25T07:52:49.553Z,58.98
2023-02-25T07:59:23.023Z,59.10
2023-02-25T08:01:50.254Z,59.10
2023-02-25T08:04:17.507Z,58.96
2023-02-25T08:07:22.196Z,58.93
2023-02-25T08:09:49.337Z,58.95
2023-02-25T08:12:16.569Z,58.90
2023-02-25T08:14:43.879Z,58.76
2023-02-25T08:17:11.026Z,58.75
2023-02-25T08:19:38.146Z,58.52
2023-02-25T08:26:15.243Z,58.43
2023-02-25T08:36:55.013Z,57.04
2023-02-25T08:39:22.271Z,57.02
2023-02-25T08:49:56.211Z,55.80
2023-02-25T08:52:23.394Z,55.45
2023-02-25T08:54:50.534Z,55.28
2023-02-25T08:57:17.931Z,54.44
2023-02-25T08:59:45.116Z,54.82
2023-02-25T09:02:12.777Z,54.87
2023-02-25T09:04:42.007Z,54.66
2023-02-25T09:07:09.749Z,54.44
2023-02-25T09:13:43.289Z,53.78
2023-02-25T09:16:11.609Z,53.87
2023-02-25T09:18:38.855Z,53.15
2023-02-25T09:25:12.053Z,51.65
2023-02-25T09:27:39.525Z,51.39
2023-02-25T09:30:09.102Z,50.83
2023-02-25T09:36:42.777Z,49.71
2023-02-25T09:39:10.039Z,48.78
2023-02-25T09:42:20.635Z,48.89
2023-02-25T09:44:51.777Z,48.77
2023-02-25T09:47:58.548Z,48.30
2023-02-25T09:50:45.652Z,47.80
2023-02-25T09:53:40.066Z,47.51
2023-02-25T09:56:09.121Z,47.49
2023-02-25T09:58:41.679Z,47.54
2023-02-25T10:01:51.645Z,47.22
2023-02-25T10:05:02.901Z,46.86
2023-02-25T10:07:51.882Z,46.04
2023-02-25T10:10:36.733Z,45.99
2023-02-25T10:14:00.267Z,45.58
2023-02-25T10:16:59.392Z,45.31
2023-02-25T10:20:26.224Z,44.58
2023-02-25T10:23:28.065Z,44.41
2023-02-25T10:30:27.945Z,43.92
2023-02-25T10:37:06.051Z,43.68
2023-02-25T10:39:34.270Z,43.56
2023-02-25T10:42:01.476Z,43.83
2023-02-25T10:44:28.577Z,43.32
2023-02-25T10:47:23.807Z,41.83
2023-02-25T10:50:17.447Z,41.74
2023-02-25T10:56:51.564Z,41.60
2023-02-25T10:59:31.240Z,41.22
2023-02-25T11:02:01.363Z,40.60
2023-02-25T11:08:47.653Z,40.25
2023-02-25T11:11:26.117Z,39.31
2023-02-25T11:14:15.196Z,39.14
2023-02-25T11:16:45.704Z,38.54
2023-02-25T11:19:28.900Z,38.38
2023-02-25T11:21:59.864Z,37.82
2023-02-25T11:24:34.597Z,37.30
2023-02-25T11:27:05.182Z,36.95
2023-02-25T11:33:40.618Z,32.95
2023-02-25T11:36:09.894Z,30.90
2023-02-25T11:38:43.174Z,30.34
2023-02-25T11:41:24.044Z,30.01
2023-02-25T11:43:51.694Z,28.75
2023-02-25T11:46:26.552Z,27.27
2023-02-25T11:53:44.879Z,25.09
2023-02-25T12:00:42.091Z,23.12
2023-02-25T12:03:18.389Z,23.98
2023-02-25T12:10:36.598Z,22.83
2023-02-25T12:13:33.286Z,22.71
2023-02-25T12:16:48.018Z,23.53
2023-02-25T12:19:45.650Z,24.42
2023-02-25T12:22:51.698Z,25.64
2023-02-25T12:25:24.565Z,26.23
2023-02-25T12:28:03.431Z,25.27
2023-02-25T12:31:09.269Z,24.67
2023-02-25T12:38:17.496Z,23.32
2023-02-25T12:40:50.461Z,22.97
2023-02-25T12:43:32.649Z,22.78
2023-02-25T12:46:08.976Z,22.45
2023-02-25T12:49:15.952Z,22.25
2023-02-25T12:52:07.213Z,22.82
2023-02-25T12:54:59.313Z,22.91
2023-02-25T12:57:46.146Z,22.69
2023-02-25T13:04:42.632Z,24.97
2023-02-25T13:07:21.498Z,24.48
2023-02-25T13:09:51.611Z,24.60
2023-02-25T13:13:10.925Z,24.26
2023-02-25T13:16:30.997Z,25.19
2023-02-25T13:19:32.414Z,24.94
2023-02-25T13:22:14.184Z,24.24
2023-02-25T13:25:29.233Z,25.59
2023-02-25T13:28:44.949Z,26.07
2023-02-25T13:35:39.122Z,26.83
2023-02-25T13:38:53.782Z,26.61
2023-02-25T13:41:48.537Z,27.04
2023-02-25T13:49:03.510Z,26.91
2023-02-25T13:52:19.285Z,26.05
2023-02-25T13:55:24.194Z,26.31
2023-02-25T13:58:01.994Z,26.32
2023-02-25T14:00:54.032Z,25.90
2023-02-25T14:03:59.758Z,25.89
2023-02-25T14:07:10.414Z,26.11
2023-02-25T14:10:00.581Z,25.94
2023-02-25T14:12:39.859Z,25.96
2023-02-25T14:15:54.777Z,26.03
2023-02-25T14:19:05.070Z,26.38
2023-02-25T14:30:19.468Z,25.82
2023-02-25T14:33:03.808Z,26.54
2023-02-25T14:35:58.866Z,26.42
2023-02-25T14:39:28.076Z,26.64
2023-02-25T14:42:41.989Z,27.07
2023-02-25T14:45:09.102Z,28.02
2023-02-25T14:47:40.752Z,28.34
2023-02-25T14:58:49.950Z,29.09
2023-02-25T15:02:16.154Z,29.79
2023-02-25T15:05:01.808Z,29.99
2023-02-25T15:08:01.328Z,30.25
2023-02-25T15:10:47.490Z,30.52
2023-02-25T15:13:39.308Z,30.42
2023-02-25T15:17:02.879Z,31.08
2023-02-25T15:19:53.674Z,30.63
2023-02-25T15:23:10.718Z,30.91
2023-02-25T15:25:38.602Z,31.21
2023-02-25T15:28:30.618Z,31.38
2023-02-25T15:35:00.717Z,31.26
2023-02-25T15:37:55.764Z,31.70
2023-02-25T15:40:23.173Z,32.14
2023-02-25T15:43:12.709Z,32.37
2023-02-25T15:45:49.137Z,32.02
2023-02-25T15:48:24.047Z,32.13
2023-02-25T15:50:53.020Z,32.10
2023-02-25T15:53:23.346Z,32.08
2023-02-25T15:55:52.906Z,32.33
2023-02-25T15:58:26.278Z,32.25
2023-02-25T16:01:07.853Z,31.78
2023-02-25T16:03:35.184Z,32.48
2023-02-25T16:10:35.256Z,31.84
2023-02-25T16:13:03.680Z,31.97
2023-02-25T16:15:47.146Z,32.36
2023-02-25T16:18:37.550Z,32.00
2023-02-25T16:25:05.678Z,31.72
2023-02-25T16:28:17.618Z,31.85
2023-02-25T16:31:17.421Z,31.82
2023-02-25T16:34:23.089Z,31.84
2023-02-25T16:37:07.731Z,31.87
2023-02-25T16:39:37.461Z,31.85
2023-02-25T16:42:12.635Z,31.85
2023-02-25T16:48:45.909Z,31.67
2023-02-25T16:51:31.739Z,32.37
2023-02-25T16:54:20.849Z,32.02
2023-02-25T16:56:54.081Z,32.50
2023-02-25T16:59:23.474Z,32.31
2023-02-25T17:02:22.949Z,32.17
2023-02-25T17:08:57.252Z,33.21
2023-02-25T17:11:26.112Z,33.66
2023-02-25T17:13:58.312Z,34.05
2023-02-25T17:16:38.347Z,34.05
2023-02-25T17:19:10.289Z,35.20
2023-02-25T17:25:49.045Z,35.00
2023-02-25T17:28:32.121Z,35.25
2023-02-25T17:31:19.534Z,35.69
2023-02-25T17:34:03.254Z,35.97
2023-02-25T17:40:30.838Z,36.29
2023-02-25T17:47:50.040Z,37.30
2023-02-25T17:50:31.984Z,37.13
2023-02-25T17:53:00.015Z,37.17
2023-02-25T18:00:10.122Z,37.63
2023-02-25T18:02:41.759Z,38.22
2023-02-25T18:05:14.983Z,37.92
2023-02-25T18:07:45.263Z,37.96
2023-02-25T18:14:42.416Z,38.23
2023-02-25T18:25:44.672Z,39.54
2023-02-25T18:28:22.828Z,39.51
2023-02-25T18:30:50.929Z,39.30
2023-02-25T18:33:19.273Z,39.44
2023-02-25T18:35:48.587Z,38.88
2023-02-25T18:38:26.492Z,39.31
2023-02-25T18:40:55.458Z,39.57
2023-02-25T18:43:45.023Z,39.64
2023-02-25T18:46:12.410Z,40.06
2023-02-25T18:48:39.860Z,39.39
2023-02-25T18:51:13.656Z,39.16
2023-02-25T18:53:41.686Z,39.62
2023-02-25T18:56:16.640Z,39.38
2023-02-25T18:58:44.721Z,39.28
2023-02-25T19:01:34.352Z,39.15
2023-02-25T19:04:08.168Z,39.18
2023-02-25T19:06:35.685Z,38.73
2023-02-25T19:09:03.761Z,39.33
2023-02-25T19:11:35.664Z,39.38
2023-02-25T19:14:05.403Z,39.60
2023-02-25T19:16:32.665Z,39.87
2023-02-25T19:19:00.494Z,40.09
2023-02-25T19:21:28.215Z,40.12
2023-02-25T19:23:55.868Z,40.14
2023-02-25T19:26:23.641Z,40.35
2023-02-25T19:28:50.996Z,39.51
2023-02-25T19:31:18.243Z,39.06
2023-02-25T19:33:45.686Z,39.49
2023-02-25T19:36:13.043Z,38.15
2023-02-25T19:38:40.432Z,39.44
2023-02-25T19:41:07.862Z,40.17
2023-02-25T19:43:36.406Z,40.70
2023-02-25T19:46:08.727Z,41.08
2023-02-25T19:48:36.277Z,41.90
2023-02-25T19:51:10.727Z,42.45
2023-02-25T19:53:38.638Z,44.10
2023-02-25T19:56:06.906Z,44.38
2023-02-25T19:58:34.353Z,45.02
2023-02-25T20:01:07.989Z,45.19
2023-02-25T20:03:38.752Z,45.36
2023-02-25T20:10:26.162Z,43.74
2023-02-25T20:12:54.198Z,44.72
2023-02-25T20:15:23.118Z,44.39
2023-02-25T20:17:50.762Z,45.45
2023-02-25T20:24:37.075Z,46.99
2023-02-25T20:27:04.713Z,47.11
2023-02-25T20:29:32.676Z,46.76
2023-02-25T20:32:00.764Z,47.05
2023-02-25T20:34:28.685Z,47.45
2023-02-25T20:41:15.877Z,46.85
2023-02-25T20:43:43.211Z,46.67
2023-02-25T20:46:28.743Z,46.61
2023-02-25T20:48:56.514Z,46.19
2023-02-25T20:51:24.307Z,45.88
2023-02-25T20:53:52.010Z,45.37
2023-02-25T20:56:25.583Z,45.15
2023-02-25T20:58:53.791Z,45.36
2023-02-25T21:01:22.324Z,45.30
2023-02-25T21:03:49.770Z,45.28
2023-02-25T21:06:18.819Z,44.67
2023-02-25T21:08:46.155Z,44.32
2023-02-25T21:11:13.530Z,43.85
2023-02-25T21:13:40.909Z,43.66
2023-02-25T21:16:08.894Z,43.73
2023-02-25T21:18:36.269Z,43.82
2023-02-25T21:21:08.065Z,43.82
2023-02-25T21:23:38.341Z,43.86
2023-02-25T21:26:07.992Z,44.07
2023-02-25T21:28:36.507Z,43.94
2023-02-25T21:31:13.893Z,44.02
2023-02-25T21:33:42.223Z,43.21
2023-02-25T21:36:11.308Z,42.65
2023-02-25T21:38:39.280Z,42.61
2023-02-25T21:41:11.630Z,42.98
2023-02-25T21:43:40.450Z,42.60
2023-02-25T21:46:12.867Z,42.52
2023-02-25T21:48:44.758Z,42.13
2023-02-25T21:51:22.995Z,42.25
2023-02-25T21:53:58.835Z,41.66
2023-02-25T21:56:28.494Z,41.29
2023-02-25T21:58:59.552Z,41.32
2023-02-25T22:01:32.070Z,41.64
2023-02-25T22:03:59.563Z,41.30
2023-02-25T22:06:28.145Z,41.41
2023-02-25T22:08:56.793Z,41.42
2023-02-25T22:11:28.954Z,41.52
2023-02-25T22:13:57.822Z,41.08
2023-02-25T22:16:25.587Z,38.80
2023-02-25T22:19:05.850Z,37.78
2023-02-25T22:21:34.716Z,37.46
2023-02-25T22:24:04.843Z,38.35
2023-02-25T22:30:38.764Z,38.86
2023-02-25T22:33:05.967Z,38.76
2023-02-25T22:35:33.472Z,37.81
2023-02-25T22:38:00.589Z,37.79
2023-02-25T22:45:32.786Z,36.22
2023-02-25T22:47:59.962Z,36.42
2023-02-25T22:54:26.847Z,35.95
2023-02-25T22:56:54.239Z,35.55
2023-02-25T23:07:18.293Z,36.71
2023-02-25T23:09:45.420Z,35.94
2023-02-25T23:12:12.577Z,35.51
2023-02-25T23:14:39.790Z,35.11
2023-02-25T23:17:06.930Z,34.74
2023-02-25T23:19:34.496Z,33.66
2023-02-25T23:22:02.109Z,33.86
2023-02-25T23:28:36.580Z,32.31
2023-02-25T23:31:05.120Z,32.56
2023-02-25T23:33:33.509Z,32.66
2023-02-25T23:36:04.776Z,32.53
2023-02-25T23:38:31.996Z,31.02
2023-02-25T23:41:00.387Z,31.41
2023-02-25T23:43:27.920Z,32.33
2023-02-25T23:45:55.069Z,31.80
2023-02-25T23:48:22.544Z,31.76
2023-02-25T23:50:49.878Z,31.52
2023-02-25T23:53:17.147Z,31.07
2023-02-25T23:55:44.372Z,31.12
2023-02-25T23:58:11.505Z,31.17
